PUA014 SUCA-SAZM
Flight info
| Callsign | PUA014 |
|---|---|
| Flight time | N/A |
| Altitude | 6000 |
| Route | PTA W59 TEDAR/N0167F070 DCT MUDNO MUDNO1Q |
| Aircraft | DA62/L-SDFGRY/C |
Departure
| Time | 2026-05-07 04:24 |
|---|---|
| Airport | Colonia Laguna de Los Patos International Airport (SUCA) |
Arrival
| Time | N/A |
|---|---|
| Airport | Ástor Piazzola International Airport (SAZM) |
| Time | Latitude | Longitude | Altitude | Speed | Heading |
|---|---|---|---|---|---|
| 2026-05-07 04:22 | -34.45372 | -57.77677 | 75 ft | 0 kts | 118° |
| 2026-05-07 04:23 | -34.45459 | -57.77476 | 65 ft | 61 kts | 117° |
| 2026-05-07 04:23 | -34.45745 | -57.76834 | 154 ft | 98 kts | 121° |
| 2026-05-07 04:24 | -34.46130 | -57.76138 | 393 ft | 104 kts | 141° |
| 2026-05-07 04:24 | -34.46776 | -57.75686 | 612 ft | 112 kts | 175° |
| 2026-05-07 04:24 | -34.47617 | -57.75567 | 752 ft | 131 kts | 181° |
| 2026-05-07 04:24 | -34.48576 | -57.75464 | 911 ft | 145 kts | 182° |
| 2026-05-07 04:25 | -34.49609 | -57.75364 | 1150 ft | 152 kts | 182° |
| 2026-05-07 04:25 | -34.50680 | -57.75237 | 1396 ft | 157 kts | 181° |
| 2026-05-07 04:25 | -34.51749 | -57.75306 | 1651 ft | 153 kts | 198° |
| 2026-05-07 04:25 | -34.52754 | -57.75654 | 1908 ft | 148 kts | 208° |
| 2026-05-07 04:26 | -34.53662 | -57.76235 | 2121 ft | 148 kts | 216° |
| 2026-05-07 04:26 | -34.54509 | -57.76914 | 2351 ft | 148 kts | 219° |
| 2026-05-07 04:26 | -34.55354 | -57.77625 | 2587 ft | 148 kts | 220° |
| 2026-05-07 04:26 | -34.56198 | -57.78348 | 2847 ft | 149 kts | 221° |
| 2026-05-07 04:27 | -34.57041 | -57.79080 | 3106 ft | 149 kts | 223° |
| 2026-05-07 04:27 | -34.57883 | -57.79824 | 3346 ft | 150 kts | 223° |
| 2026-05-07 04:27 | -34.58720 | -57.80583 | 3611 ft | 150 kts | 224° |
| 2026-05-07 04:27 | -34.59602 | -57.81268 | 3902 ft | 152 kts | 208° |
| 2026-05-07 04:28 | -34.60579 | -57.81595 | 4336 ft | 149 kts | 200° |
| 2026-05-07 04:28 | -34.61600 | -57.81896 | 4512 ft | 156 kts | 201° |
| 2026-05-07 04:28 | -34.62676 | -57.82163 | 4726 ft | 159 kts | 198° |
| 2026-05-07 04:28 | -34.63801 | -57.82217 | 4964 ft | 169 kts | 171° |
| 2026-05-07 04:29 | -34.64977 | -57.81861 | 5021 ft | 181 kts | 173° |
| 2026-05-07 04:29 | -34.66220 | -57.81503 | 5116 ft | 184 kts | 168° |
| 2026-05-07 04:29 | -34.67454 | -57.81350 | 5235 ft | 175 kts | 193° |
| 2026-05-07 04:29 | -34.68324 | -57.82126 | 5348 ft | 154 kts | 243° |
| 2026-05-07 04:30 | -34.69133 | -57.82877 | 5391 ft | 187 kts | 157° |